首页
METAR-TAF:

METAR-TAF

机场 :

洛斯阿拉莫斯, 新墨西哥州, 美国

纬度: 35-53N, 经度: 106-17W, 海拔: 2179米

当前天气观测

该预报发布于21分钟前的06:55 UTC
风速6节,风向多变
温度 18°C
湿度 14%
气压 1020 hPa
能見度: 16.1公里
天空无云

METAR: KLAM 300655Z AUTO VRB06KT 10SM CLR 18/M10 A3013 RMK AO2 T01851103 $

时间: 01:16 (07:16 UTC)


TAF: 丢失

超过4000个机场的气象观测和天气预报(METAR&TAF报告)。

可查询的气象台以黄色和红色小点在地图上表示。

将鼠标移到小点上方,可查看气象台名称。

然后点击查看天气观测和预报。

如需切换地图:点击带黑十字的绿色按钮放大地图;点击带横线的绿色按钮缩小地图;或者点击绿色箭头查看邻近地区的地图。


METAR-TAF: